sensor_id;sensor_type;location;lat;lon;timestamp;temperature;humidity
68109;SHT30;54893;49.864;19.084;2023-03-11T00:02:02;9.64;76.93
68109;SHT30;54893;49.864;19.084;2023-03-11T00:07:08;9.65;77.03
68109;SHT30;54893;49.864;19.084;2023-03-11T00:12:08;9.74;76.55
68109;SHT30;54893;49.864;19.084;2023-03-11T00:17:08;9.47;77.51
68109;SHT30;54893;49.864;19.084;2023-03-11T00:22:09;9.60;76.82
68109;SHT30;54893;49.864;19.084;2023-03-11T00:27:09;9.65;75.92
68109;SHT30;54893;49.864;19.084;2023-03-11T00:32:09;9.46;75.40
68109;SHT30;54893;49.864;19.084;2023-03-11T00:37:10;9.26;75.67
68109;SHT30;54893;49.864;19.084;2023-03-11T00:42:10;9.03;77.14
68109;SHT30;54893;49.864;19.084;2023-03-11T00:47:10;9.12;77.16
68109;SHT30;54893;49.864;19.084;2023-03-11T00:52:11;8.94;78.64
68109;SHT30;54893;49.864;19.084;2023-03-11T00:57:11;8.84;80.41
68109;SHT30;54893;49.864;19.084;2023-03-11T01:02:11;8.66;81.87
68109;SHT30;54893;49.864;19.084;2023-03-11T01:07:12;8.41;81.56
68109;SHT30;54893;49.864;19.084;2023-03-11T01:12:12;8.15;80.07
68109;SHT30;54893;49.864;19.084;2023-03-11T01:17:12;8.01;80.12
68109;SHT30;54893;49.864;19.084;2023-03-11T01:22:13;7.74;80.06
68109;SHT30;54893;49.864;19.084;2023-03-11T01:27:13;7.71;79.37
68109;SHT30;54893;49.864;19.084;2023-03-11T01:32:13;7.73;77.94
68109;SHT30;54893;49.864;19.084;2023-03-11T01:37:14;7.78;77.22
68109;SHT30;54893;49.864;19.084;2023-03-11T01:42:14;7.60;76.93
68109;SHT30;54893;49.864;19.084;2023-03-11T01:47:32;7.44;76.84
68109;SHT30;54893;49.864;19.084;2023-03-11T01:52:33;7.39;76.37
68109;SHT30;54893;49.864;19.084;2023-03-11T01:57:34;7.29;75.57
68109;SHT30;54893;49.864;19.084;2023-03-11T02:02:41;7.07;76.67
68109;SHT30;54893;49.864;19.084;2023-03-11T02:07:42;6.95;77.72
68109;SHT30;54893;49.864;19.084;2023-03-11T02:12:44;6.71;79.65
68109;SHT30;54893;49.864;19.084;2023-03-11T02:17:45;6.25;82.48
68109;SHT30;54893;49.864;19.084;2023-03-11T02:22:46;6.27;81.60
68109;SHT30;54893;49.864;19.084;2023-03-11T02:27:48;6.18;82.16
68109;SHT30;54893;49.864;19.084;2023-03-11T02:32:50;6.27;81.40
68109;SHT30;54893;49.864;19.084;2023-03-11T02:37:52;6.35;80.26
68109;SHT30;54893;49.864;19.084;2023-03-11T02:42:55;6.51;79.17
68109;SHT30;54893;49.864;19.084;2023-03-11T02:47:57;6.44;79.20
68109;SHT30;54893;49.864;19.084;2023-03-11T02:52:59;6.56;78.27
68109;SHT30;54893;49.864;19.084;2023-03-11T02:57:59;6.61;78.04
68109;SHT30;54893;49.864;19.084;2023-03-11T03:02:59;6.45;78.53
68109;SHT30;54893;49.864;19.084;2023-03-11T03:08:00;6.58;77.96
68109;SHT30;54893;49.864;19.084;2023-03-11T03:13:02;6.64;77.22
68109;SHT30;54893;49.864;19.084;2023-03-11T03:18:02;6.53;77.91
68109;SHT30;54893;49.864;19.084;2023-03-11T03:23:02;6.46;78.35
68109;SHT30;54893;49.864;19.084;2023-03-11T03:28:03;6.38;78.72
68109;SHT30;54893;49.864;19.084;2023-03-11T03:33:04;6.28;79.31
68109;SHT30;54893;49.864;19.084;2023-03-11T03:38:04;6.44;77.71
68109;SHT30;54893;49.864;19.084;2023-03-11T03:43:05;6.37;78.05
68109;SHT30;54893;49.864;19.084;2023-03-11T03:48:05;6.37;77.40
68109;SHT30;54893;49.864;19.084;2023-03-11T03:53:06;6.14;78.76
68109;SHT30;54893;49.864;19.084;2023-03-11T03:58:06;6.00;79.07
68109;SHT30;54893;49.864;19.084;2023-03-11T04:03:06;5.84;80.32
68109;SHT30;54893;49.864;19.084;2023-03-11T04:08:07;5.80;80.50
68109;SHT30;54893;49.864;19.084;2023-03-11T04:13:07;5.75;80.54
68109;SHT30;54893;49.864;19.084;2023-03-11T04:18:07;5.73;80.89
68109;SHT30;54893;49.864;19.084;2023-03-11T04:23:08;5.81;80.88
68109;SHT30;54893;49.864;19.084;2023-03-11T04:28:08;5.57;82.53
68109;SHT30;54893;49.864;19.084;2023-03-11T04:33:09;5.18;84.27
68109;SHT30;54893;49.864;19.084;2023-03-11T04:38:09;5.19;83.97
68109;SHT30;54893;49.864;19.084;2023-03-11T04:43:09;5.05;85.15
68109;SHT30;54893;49.864;19.084;2023-03-11T04:48:10;4.95;84.93
68109;SHT30;54893;49.864;19.084;2023-03-11T04:53:10;4.85;85.68
68109;SHT30;54893;49.864;19.084;2023-03-11T04:58:10;5.08;85.83
68109;SHT30;54893;49.864;19.084;2023-03-11T05:03:11;4.88;86.40
68109;SHT30;54893;49.864;19.084;2023-03-11T05:08:11;3.49;90.04
68109;SHT30;54893;49.864;19.084;2023-03-11T05:13:12;2.64;91.82
68109;SHT30;54893;49.864;19.084;2023-03-11T05:18:13;2.31;92.66
68109;SHT30;54893;49.864;19.084;2023-03-11T05:23:13;2.11;92.84
68109;SHT30;54893;49.864;19.084;2023-03-11T05:28:13;2.13;93.58
68109;SHT30;54893;49.864;19.084;2023-03-11T05:33:14;2.06;92.85
68109;SHT30;54893;49.864;19.084;2023-03-11T05:38:14;2.13;92.35
68109;SHT30;54893;49.864;19.084;2023-03-11T05:43:14;2.27;90.89
68109;SHT30;54893;49.864;19.084;2023-03-11T05:48:15;2.31;90.30
68109;SHT30;54893;49.864;19.084;2023-03-11T05:53:15;2.28;90.15
68109;SHT30;54893;49.864;19.084;2023-03-11T05:58:15;2.44;88.91
68109;SHT30;54893;49.864;19.084;2023-03-11T06:03:16;2.47;88.06
68109;SHT30;54893;49.864;19.084;2023-03-11T06:08:16;2.50;88.11
68109;SHT30;54893;49.864;19.084;2023-03-11T06:13:17;2.68;86.39
68109;SHT30;54893;49.864;19.084;2023-03-11T06:18:17;2.70;85.66
68109;SHT30;54893;49.864;19.084;2023-03-11T06:23:18;2.62;85.13
68109;SHT30;54893;49.864;19.084;2023-03-11T06:28:19;2.68;84.13
68109;SHT30;54893;49.864;19.084;2023-03-11T06:33:19;2.71;83.06
68109;SHT30;54893;49.864;19.084;2023-03-11T06:38:19;2.61;83.71
68109;SHT30;54893;49.864;19.084;2023-03-11T06:43:21;2.66;82.65
68109;SHT30;54893;49.864;19.084;2023-03-11T06:48:21;2.58;82.29
68109;SHT30;54893;49.864;19.084;2023-03-11T06:53:22;2.58;82.62
68109;SHT30;54893;49.864;19.084;2023-03-11T06:58:23;2.65;82.14
68109;SHT30;54893;49.864;19.084;2023-03-11T07:03:23;2.55;82.88
68109;SHT30;54893;49.864;19.084;2023-03-11T07:08:24;2.38;84.64
68109;SHT30;54893;49.864;19.084;2023-03-11T07:13:24;2.52;85.28
68109;SHT30;54893;49.864;19.084;2023-03-11T07:18:25;2.40;86.62
68109;SHT30;54893;49.864;19.084;2023-03-11T07:23:25;2.17;88.05
68109;SHT30;54893;49.864;19.084;2023-03-11T07:28:26;2.16;88.87
68109;SHT30;54893;49.864;19.084;2023-03-11T07:33:27;2.18;89.21
68109;SHT30;54893;49.864;19.084;2023-03-11T07:38:27;2.10;89.66
68109;SHT30;54893;49.864;19.084;2023-03-11T07:43:28;2.18;89.47
68109;SHT30;54893;49.864;19.084;2023-03-11T07:48:28;2.20;89.72
68109;SHT30;54893;49.864;19.084;2023-03-11T07:53:28;2.30;89.44
68109;SHT30;54893;49.864;19.084;2023-03-11T07:58:29;2.27;89.10
68109;SHT30;54893;49.864;19.084;2023-03-11T08:03:29;2.16;90.13
68109;SHT30;54893;49.864;19.084;2023-03-11T08:08:30;2.14;90.23
68109;SHT30;54893;49.864;19.084;2023-03-11T08:13:30;2.13;90.57
68109;SHT30;54893;49.864;19.084;2023-03-11T08:18:30;2.13;90.03
68109;SHT30;54893;49.864;19.084;2023-03-11T08:23:31;2.14;90.41
68109;SHT30;54893;49.864;19.084;2023-03-11T08:28:32;2.09;90.02
68109;SHT30;54893;49.864;19.084;2023-03-11T08:33:32;2.06;90.48
68109;SHT30;54893;49.864;19.084;2023-03-11T08:38:33;2.09;90.10
68109;SHT30;54893;49.864;19.084;2023-03-11T08:43:33;1.89;91.04
68109;SHT30;54893;49.864;19.084;2023-03-11T08:48:36;1.86;91.20
68109;SHT30;54893;49.864;19.084;2023-03-11T08:53:36;1.59;91.97
68109;SHT30;54893;49.864;19.084;2023-03-11T08:58:37;1.55;92.27
68109;SHT30;54893;49.864;19.084;2023-03-11T09:03:38;1.43;92.83
68109;SHT30;54893;49.864;19.084;2023-03-11T09:08:38;1.48;92.95
68109;SHT30;54893;49.864;19.084;2023-03-11T09:13:39;1.43;92.86
68109;SHT30;54893;49.864;19.084;2023-03-11T09:18:40;1.31;93.53
68109;SHT30;54893;49.864;19.084;2023-03-11T09:23:40;1.55;92.86
68109;SHT30;54893;49.864;19.084;2023-03-11T09:28:41;1.77;90.91
68109;SHT30;54893;49.864;19.084;2023-03-11T09:33:42;1.46;92.65
68109;SHT30;54893;49.864;19.084;2023-03-11T09:38:43;1.46;93.26
68109;SHT30;54893;49.864;19.084;2023-03-11T09:54:09;1.36;93.93
68109;SHT30;54893;49.864;19.084;2023-03-11T09:59:17;1.14;94.63
68109;SHT30;54893;49.864;19.084;2023-03-11T10:04:24;1.25;93.92
68109;SHT30;54893;49.864;19.084;2023-03-11T10:09:47;1.11;94.43
68109;SHT30;54893;49.864;19.084;2023-03-11T10:15:11;1.06;94.58
68109;SHT30;54893;49.864;19.084;2023-03-11T10:25:15;1.09;94.32
68109;SHT30;54893;49.864;19.084;2023-03-11T10:30:37;0.98;94.64
68109;SHT30;54893;49.864;19.084;2023-03-11T10:35:41;1.04;94.41
68109;SHT30;54893;49.864;19.084;2023-03-11T10:40:43;0.91;95.13
68109;SHT30;54893;49.864;19.084;2023-03-11T10:45:45;0.91;95.36
68109;SHT30;54893;49.864;19.084;2023-03-11T10:51:11;0.95;95.46
68109;SHT30;54893;49.864;19.084;2023-03-11T10:56:33;1.12;94.12
68109;SHT30;54893;49.864;19.084;2023-03-11T11:01:34;0.96;95.02
68109;SHT30;54893;49.864;19.084;2023-03-11T11:06:35;1.11;94.84
68109;SHT30;54893;49.864;19.084;2023-03-11T11:11:36;0.82;95.22
68109;SHT30;54893;49.864;19.084;2023-03-11T11:16:39;0.91;95.25
68109;SHT30;54893;49.864;19.084;2023-03-11T11:21:42;0.94;94.49
68109;SHT30;54893;49.864;19.084;2023-03-11T11:27:20;0.89;94.76
68109;SHT30;54893;49.864;19.084;2023-03-11T11:32:25;0.92;94.20
68109;SHT30;54893;49.864;19.084;2023-03-11T11:37:27;0.99;94.35
68109;SHT30;54893;49.864;19.084;2023-03-11T11:42:31;1.05;94.24
68109;SHT30;54893;49.864;19.084;2023-03-11T11:47:35;0.98;94.71
68109;SHT30;54893;49.864;19.084;2023-03-11T11:52:45;1.12;94.83
68109;SHT30;54893;49.864;19.084;2023-03-11T11:57:48;1.02;94.38
68109;SHT30;54893;49.864;19.084;2023-03-11T12:08:26;1.05;93.58
68109;SHT30;54893;49.864;19.084;2023-03-11T12:14:00;0.88;93.09
68109;SHT30;54893;49.864;19.084;2023-03-11T12:19:20;0.85;93.26
68109;SHT30;54893;49.864;19.084;2023-03-11T12:29:54;0.87;94.07
68109;SHT30;54893;49.864;19.084;2023-03-11T12:35:00;0.72;93.53
68109;SHT30;54893;49.864;19.084;2023-03-11T12:45:51;0.91;92.53
68109;SHT30;54893;49.864;19.084;2023-03-11T12:50:51;0.81;92.31
68109;SHT30;54893;49.864;19.084;2023-03-11T13:33:35;0.64;91.73
68109;SHT30;54893;49.864;19.084;2023-03-11T13:49:27;0.68;90.82
68109;SHT30;54893;49.864;19.084;2023-03-11T13:54:45;0.54;90.40
68109;SHT30;54893;49.864;19.084;2023-03-11T13:59:50;0.57;90.51
68109;SHT30;54893;49.864;19.084;2023-03-11T14:05:04;0.75;91.05
68109;SHT30;54893;49.864;19.084;2023-03-11T14:10:26;0.56;91.98
68109;SHT30;54893;49.864;19.084;2023-03-11T14:15:26;0.37;93.03
68109;SHT30;54893;49.864;19.084;2023-03-11T14:20:27;0.46;92.98
68109;SHT30;54893;49.864;19.084;2023-03-11T14:25:28;0.50;92.88
68109;SHT30;54893;49.864;19.084;2023-03-11T14:30:32;0.56;92.83
68109;SHT30;54893;49.864;19.084;2023-03-11T14:35:33;0.54;92.73
68109;SHT30;54893;49.864;19.084;2023-03-11T14:40:35;0.71;90.87
68109;SHT30;54893;49.864;19.084;2023-03-11T14:45:41;0.64;91.68
68109;SHT30;54893;49.864;19.084;2023-03-11T14:50:44;0.71;91.24
68109;SHT30;54893;49.864;19.084;2023-03-11T14:55:56;0.87;90.16
68109;SHT30;54893;49.864;19.084;2023-03-11T15:01:16;0.71;90.46
68109;SHT30;54893;49.864;19.084;2023-03-11T15:06:28;0.80;90.64
68109;SHT30;54893;49.864;19.084;2023-03-11T15:11:29;0.65;90.67
68109;SHT30;54893;49.864;19.084;2023-03-11T15:16:34;0.75;89.70
68109;SHT30;54893;49.864;19.084;2023-03-11T15:21:34;0.60;90.16
68109;SHT30;54893;49.864;19.084;2023-03-11T15:26:35;0.61;90.24
68109;SHT30;54893;49.864;19.084;2023-03-11T15:31:38;0.64;89.77
68109;SHT30;54893;49.864;19.084;2023-03-11T15:41:57;0.21;91.07
68109;SHT30;54893;49.864;19.084;2023-03-11T15:46:58;0.37;90.76
68109;SHT30;54893;49.864;19.084;2023-03-11T15:52:00;0.58;90.39
68109;SHT30;54893;49.864;19.084;2023-03-11T15:57:04;0.43;91.01
68109;SHT30;54893;49.864;19.084;2023-03-11T16:02:18;0.40;91.46
68109;SHT30;54893;49.864;19.084;2023-03-11T16:07:20;0.26;91.92
68109;SHT30;54893;49.864;19.084;2023-03-11T16:12:22;0.03;93.12
68109;SHT30;54893;49.864;19.084;2023-03-11T16:17:22;-0.01;93.84
68109;SHT30;54893;49.864;19.084;2023-03-11T16:22:31;0.10;94.39
68109;SHT30;54893;49.864;19.084;2023-03-11T16:27:34;0.23;94.55
68109;SHT30;54893;49.864;19.084;2023-03-11T16:32:34;-0.11;95.67
68109;SHT30;54893;49.864;19.084;2023-03-11T16:37:34;0.02;94.94
68109;SHT30;54893;49.864;19.084;2023-03-11T16:42:35;0.05;93.90
68109;SHT30;54893;49.864;19.084;2023-03-11T16:47:35;-0.28;92.98
68109;SHT30;54893;49.864;19.084;2023-03-11T16:52:35;-0.38;93.86
68109;SHT30;54893;49.864;19.084;2023-03-11T16:57:36;-0.24;92.94
68109;SHT30;54893;49.864;19.084;2023-03-11T17:02:37;-0.27;93.57
68109;SHT30;54893;49.864;19.084;2023-03-11T17:07:38;-0.21;92.90
68109;SHT30;54893;49.864;19.084;2023-03-11T17:12:38;-0.15;92.01
68109;SHT30;54893;49.864;19.084;2023-03-11T17:17:39;-0.32;92.35
68109;SHT30;54893;49.864;19.084;2023-03-11T17:22:39;-0.19;91.20
68109;SHT30;54893;49.864;19.084;2023-03-11T17:27:39;-0.34;91.30
68109;SHT30;54893;49.864;19.084;2023-03-11T17:32:40;-0.10;89.46
68109;SHT30;54893;49.864;19.084;2023-03-11T17:37:40;-0.35;90.61
68109;SHT30;54893;49.864;19.084;2023-03-11T17:42:40;-0.21;90.25
68109;SHT30;54893;49.864;19.084;2023-03-11T17:47:41;-0.19;89.47
68109;SHT30;54893;49.864;19.084;2023-03-11T17:52:41;-0.21;89.74
68109;SHT30;54893;49.864;19.084;2023-03-11T17:57:41;-0.35;90.07
68109;SHT30;54893;49.864;19.084;2023-03-11T18:02:42;-0.38;90.36
68109;SHT30;54893;49.864;19.084;2023-03-11T18:07:42;-0.48;90.36
68109;SHT30;54893;49.864;19.084;2023-03-11T18:12:44;-0.64;90.14
68109;SHT30;54893;49.864;19.084;2023-03-11T18:17:46;-0.35;89.70
68109;SHT30;54893;49.864;19.084;2023-03-11T18:22:46;-0.49;88.93
68109;SHT30;54893;49.864;19.084;2023-03-11T18:27:46;-0.45;88.87
68109;SHT30;54893;49.864;19.084;2023-03-11T18:32:47;-0.64;89.57
68109;SHT30;54893;49.864;19.084;2023-03-11T18:37:47;-0.61;89.55
68109;SHT30;54893;49.864;19.084;2023-03-11T18:42:48;-0.65;88.87
68109;SHT30;54893;49.864;19.084;2023-03-11T18:47:51;-0.66;89.04
68109;SHT30;54893;49.864;19.084;2023-03-11T18:52:51;-0.44;87.68
68109;SHT30;54893;49.864;19.084;2023-03-11T18:57:52;-0.58;87.99
68109;SHT30;54893;49.864;19.084;2023-03-11T19:02:53;-0.72;88.27
68109;SHT30;54893;49.864;19.084;2023-03-11T19:07:53;-0.62;87.89
68109;SHT30;54893;49.864;19.084;2023-03-11T19:12:53;-0.55;86.98
68109;SHT30;54893;49.864;19.084;2023-03-11T19:17:54;-0.49;87.22
68109;SHT30;54893;49.864;19.084;2023-03-11T19:22:54;-0.47;86.38
68109;SHT30;54893;49.864;19.084;2023-03-11T19:27:55;-0.57;86.47
68109;SHT30;54893;49.864;19.084;2023-03-11T19:32:57;-0.52;86.51
68109;SHT30;54893;49.864;19.084;2023-03-11T19:37:57;-0.57;86.41
68109;SHT30;54893;49.864;19.084;2023-03-11T19:42:58;-0.85;87.93
68109;SHT30;54893;49.864;19.084;2023-03-11T19:47:58;-0.86;87.81
68109;SHT30;54893;49.864;19.084;2023-03-11T19:52:59;-0.92;88.33
68109;SHT30;54893;49.864;19.084;2023-03-11T19:58:00;-0.73;87.62
68109;SHT30;54893;49.864;19.084;2023-03-11T20:03:00;-0.76;87.11
68109;SHT30;54893;49.864;19.084;2023-03-11T20:08:02;-0.72;86.93
68109;SHT30;54893;49.864;19.084;2023-03-11T20:13:04;-0.83;87.71
68109;SHT30;54893;49.864;19.084;2023-03-11T20:18:05;-0.89;87.92
68109;SHT30;54893;49.864;19.084;2023-03-11T20:23:05;-0.88;88.08
68109;SHT30;54893;49.864;19.084;2023-03-11T20:28:06;-0.59;86.68
68109;SHT30;54893;49.864;19.084;2023-03-11T20:33:07;-0.78;87.46
68109;SHT30;54893;49.864;19.084;2023-03-11T20:38:07;-0.55;85.46
68109;SHT30;54893;49.864;19.084;2023-03-11T20:43:09;-0.86;86.68
68109;SHT30;54893;49.864;19.084;2023-03-11T20:48:09;-0.83;86.30
68109;SHT30;54893;49.864;19.084;2023-03-11T20:53:09;-0.82;85.88
68109;SHT30;54893;49.864;19.084;2023-03-11T20:58:10;-0.96;85.83
68109;SHT30;54893;49.864;19.084;2023-03-11T21:03:10;-1.09;86.14
68109;SHT30;54893;49.864;19.084;2023-03-11T21:08:11;-1.07;86.04
68109;SHT30;54893;49.864;19.084;2023-03-11T21:13:12;-1.10;86.52
68109;SHT30;54893;49.864;19.084;2023-03-11T21:18:12;-1.15;86.96
68109;SHT30;54893;49.864;19.084;2023-03-11T21:23:12;-1.07;87.15
68109;SHT30;54893;49.864;19.084;2023-03-11T21:28:13;-1.00;87.17
68109;SHT30;54893;49.864;19.084;2023-03-11T21:33:13;-1.05;88.04
68109;SHT30;54893;49.864;19.084;2023-03-11T21:38:14;-1.17;88.93
68109;SHT30;54893;49.864;19.084;2023-03-11T21:43:16;-1.06;89.01
68109;SHT30;54893;49.864;19.084;2023-03-11T21:48:17;-1.06;89.15
68109;SHT30;54893;49.864;19.084;2023-03-11T21:53:17;-1.09;89.48
68109;SHT30;54893;49.864;19.084;2023-03-11T21:58:18;-0.88;89.38
68109;SHT30;54893;49.864;19.084;2023-03-11T22:03:19;-0.75;89.17
68109;SHT30;54893;49.864;19.084;2023-03-11T22:08:19;-0.73;89.06
68109;SHT30;54893;49.864;19.084;2023-03-11T22:13:20;-0.79;89.52
68109;SHT30;54893;49.864;19.084;2023-03-11T22:18:21;-0.75;89.44
68109;SHT30;54893;49.864;19.084;2023-03-11T22:23:21;-0.88;90.15
68109;SHT30;54893;49.864;19.084;2023-03-11T22:28:22;-0.59;89.49
68109;SHT30;54893;49.864;19.084;2023-03-11T22:33:23;-0.78;90.42
68109;SHT30;54893;49.864;19.084;2023-03-11T22:38:25;-0.61;89.82
68109;SHT30;54893;49.864;19.084;2023-03-11T22:43:26;-0.78;89.10
68109;SHT30;54893;49.864;19.084;2023-03-11T22:48:26;-0.75;88.50
68109;SHT30;54893;49.864;19.084;2023-03-11T22:53:28;-0.73;88.64
68109;SHT30;54893;49.864;19.084;2023-03-11T22:58:28;-0.96;89.80
68109;SHT30;54893;49.864;19.084;2023-03-11T23:03:30;-0.96;89.64
68109;SHT30;54893;49.864;19.084;2023-03-11T23:08:31;-1.05;89.68
68109;SHT30;54893;49.864;19.084;2023-03-11T23:13:32;-1.29;89.99
68109;SHT30;54893;49.864;19.084;2023-03-11T23:18:35;-1.37;89.76
68109;SHT30;54893;49.864;19.084;2023-03-11T23:23:36;-1.74;90.42
68109;SHT30;54893;49.864;19.084;2023-03-11T23:28:37;-1.49;89.83
68109;SHT30;54893;49.864;19.084;2023-03-11T23:33:40;-1.63;90.31
68109;SHT30;54893;49.864;19.084;2023-03-11T23:38:41;-1.88;90.93
68109;SHT30;54893;49.864;19.084;2023-03-11T23:43:42;-1.60;90.01
68109;SHT30;54893;49.864;19.084;2023-03-11T23:48:42;-1.53;90.44
68109;SHT30;54893;49.864;19.084;2023-03-11T23:53:43;-1.73;91.30
68109;SHT30;54893;49.864;19.084;2023-03-11T23:58:44;-1.78;91.35
